Helmville, Montana
Current Conditions -  °F | °C
As of 1:53 AM on Tuesday 21 Oct 2014 (Local Time) from KHLN Reporting Station
Clear Clear  
Wind Chill: 12°   Ceiling: Unl
Heat Index: 12°   Visibility: 10mi
Dew Point:   Wind: 3mph
Humidity: 50%   Direction: NA
Pressure: 29.73"   Gusts: NA
Location:  46.87°N, 112.96°W
Report Text: KHLN 210753Z AUTO VRB03KT 10SM CLR 12/02 A2973 RMK AO2 SLP061 T01170017
Loading
Personal Weather Stations






























Interactive Weather Map
Tropical Storm Tracking
New forecast layout! Learn more

10-Day Weather Forecast

Advertisements
Track Severe Weather on mobile